createdAt,value
2023-01-30T00:01:03.570Z,16.30
2023-01-30T00:03:30.500Z,16.20
2023-01-30T00:05:59.572Z,17.40
2023-01-30T00:08:26.242Z,16.20
2023-01-30T00:10:52.908Z,15.90
2023-01-30T00:13:24.319Z,16.30
2023-01-30T00:15:50.901Z,15.60
2023-01-30T00:18:17.467Z,15.20
2023-01-30T00:20:44.279Z,13.60
2023-01-30T00:23:11.100Z,14.30
2023-01-30T00:25:37.747Z,12.70
2023-01-30T00:28:06.898Z,13.20
2023-01-30T00:30:33.701Z,13.60
2023-01-30T00:33:00.422Z,15.00
2023-01-30T00:35:29.683Z,14.70
2023-01-30T00:37:57.283Z,15.40
2023-01-30T00:40:25.111Z,15.80
2023-01-30T00:46:02.793Z,14.50
2023-01-30T00:48:29.507Z,16.90
2023-01-30T00:50:58.696Z,16.70
2023-01-30T00:53:25.409Z,17.80
2023-01-30T00:55:53.161Z,15.80
2023-01-30T00:58:21.005Z,18.20
2023-01-30T01:00:48.256Z,16.60
2023-01-30T01:03:14.763Z,15.60
2023-01-30T01:05:44.611Z,17.20
2023-01-30T01:08:14.310Z,17.80
2023-01-30T01:26:05.000Z,16.10
2023-01-30T01:28:36.283Z,17.20
2023-01-30T01:31:10.750Z,18.00
2023-01-30T01:33:39.173Z,19.20
2023-01-30T01:36:08.115Z,19.40
2023-01-30T01:38:36.003Z,19.60
2023-01-30T01:41:06.097Z,19.60
2023-01-30T01:43:58.624Z,20.10
2023-01-30T01:46:35.354Z,20.90
2023-01-30T01:49:12.601Z,20.10
2023-01-30T01:51:54.551Z,21.40
2023-01-30T01:54:31.718Z,19.30
2023-01-30T01:57:04.000Z,20.00
2023-01-30T01:59:40.812Z,21.20
2023-01-30T02:02:12.907Z,20.30
2023-01-30T02:05:02.378Z,15.50
2023-01-30T02:07:53.613Z,19.50
2023-01-30T02:10:26.686Z,19.40
2023-01-30T02:12:57.151Z,18.70
2023-01-30T02:15:25.317Z,17.40
2023-01-30T02:17:53.617Z,19.20
2023-01-30T02:20:40.048Z,18.50
2023-01-30T02:23:31.369Z,18.40
2023-01-30T02:25:59.335Z,15.90
2023-01-30T02:29:07.237Z,17.00
2023-01-30T02:31:40.620Z,16.60
2023-01-30T02:34:25.653Z,16.00
2023-01-30T02:37:15.496Z,16.90
2023-01-30T02:39:55.425Z,15.90
2023-01-30T02:42:37.760Z,16.30
2023-01-30T02:45:17.035Z,14.30
2023-01-30T02:47:57.023Z,15.30
2023-01-30T02:50:36.759Z,14.40
2023-01-30T02:53:06.419Z,14.50
2023-01-30T02:55:37.527Z,14.30
2023-01-30T02:58:09.994Z,13.80
2023-01-30T03:00:43.743Z,13.20
2023-01-30T03:03:27.109Z,11.70
2023-01-30T03:06:10.118Z,12.60
2023-01-30T03:09:08.041Z,12.90
2023-01-30T03:11:49.317Z,12.70
2023-01-30T03:14:20.483Z,12.70
2023-01-30T03:16:52.291Z,11.80
2023-01-30T03:19:25.819Z,12.70
2023-01-30T03:21:54.597Z,13.10
2023-01-30T03:24:23.132Z,11.80
2023-01-30T03:26:58.765Z,12.00
2023-01-30T03:29:27.168Z,11.20
2023-01-30T03:31:55.376Z,10.90
2023-01-30T03:34:26.202Z,9.40
2023-01-30T03:36:58.078Z,11.20
2023-01-30T03:39:26.696Z,11.60
2023-01-30T03:41:55.016Z,11.30
2023-01-30T03:44:23.726Z,12.20
2023-01-30T03:46:51.784Z,11.20
2023-01-30T03:49:23.556Z,11.20
2023-01-30T03:51:52.492Z,11.30
2023-01-30T03:54:20.570Z,11.00
2023-01-30T03:56:52.329Z,11.20
2023-01-30T03:59:23.279Z,12.50
2023-01-30T04:01:58.218Z,11.00
2023-01-30T04:04:26.530Z,11.90
2023-01-30T04:06:54.750Z,10.60
2023-01-30T04:09:22.992Z,12.10
2023-01-30T04:11:53.067Z,11.60
2023-01-30T04:14:21.129Z,11.40
2023-01-30T04:17:12.477Z,11.90
2023-01-30T04:20:07.011Z,12.20
2023-01-30T04:22:37.686Z,12.60
2023-01-30T04:25:05.790Z,13.20
2023-01-30T04:27:33.881Z,12.90
2023-01-30T04:30:12.305Z,12.50
2023-01-30T04:32:44.189Z,12.30
2023-01-30T04:35:14.668Z,12.00
2023-01-30T04:37:42.677Z,14.00
2023-01-30T04:40:11.473Z,13.70
2023-01-30T04:42:40.227Z,12.70
2023-01-30T04:45:37.243Z,13.10
2023-01-30T04:48:05.503Z,12.50
2023-01-30T04:50:33.609Z,12.70
2023-01-30T04:53:01.561Z,12.30
2023-01-30T04:55:29.919Z,13.30
2023-01-30T04:58:03.355Z,12.90
2023-01-30T05:00:34.553Z,12.00
2023-01-30T05:03:02.854Z,11.70
2023-01-30T05:05:31.055Z,12.70
2023-01-30T05:08:01.700Z,12.80
2023-01-30T05:10:29.639Z,12.00
2023-01-30T05:13:02.399Z,13.60
2023-01-30T05:15:33.935Z,12.70
2023-01-30T05:18:01.906Z,12.70
2023-01-30T05:20:32.114Z,11.50
2023-01-30T05:23:00.013Z,12.10
2023-01-30T05:25:28.016Z,12.60
2023-01-30T05:27:57.158Z,13.40
2023-01-30T05:30:25.348Z,12.90
2023-01-30T05:32:53.571Z,14.10
2023-01-30T05:35:21.767Z,13.50
2023-01-30T05:37:52.928Z,13.70
2023-01-30T05:40:20.906Z,13.20
2023-01-30T05:42:48.951Z,11.90
2023-01-30T05:45:17.309Z,12.70
2023-01-30T05:47:50.168Z,14.20
2023-01-30T05:50:18.282Z,12.90
2023-01-30T05:52:46.632Z,13.50
2023-01-30T05:55:14.720Z,11.70
2023-01-30T05:57:42.874Z,12.10
2023-01-30T06:00:11.547Z,13.30
2023-01-30T06:02:42.405Z,11.70
2023-01-30T06:05:10.902Z,13.30
2023-01-30T06:07:38.867Z,13.00
2023-01-30T06:10:07.057Z,13.00
2023-01-30T06:12:34.985Z,12.90
2023-01-30T06:15:05.471Z,12.50
2023-01-30T06:17:33.415Z,15.60
2023-01-30T06:20:03.541Z,15.00
2023-01-30T06:22:31.523Z,13.40
2023-01-30T06:25:01.113Z,15.10
2023-01-30T06:27:29.290Z,15.80
2023-01-30T06:29:57.473Z,15.60
2023-01-30T06:32:25.618Z,14.20
2023-01-30T06:35:01.798Z,15.40
2023-01-30T06:37:29.816Z,15.40
2023-01-30T06:39:58.911Z,14.80
2023-01-30T06:42:34.753Z,14.50
2023-01-30T06:45:04.171Z,14.50
2023-01-30T06:47:32.450Z,15.40
2023-01-30T06:50:04.261Z,15.80
2023-01-30T06:53:12.627Z,15.60
2023-01-30T06:55:46.724Z,15.50
2023-01-30T06:58:35.579Z,16.00
2023-01-30T07:01:19.918Z,15.90
2023-01-30T07:04:02.407Z,16.00
2023-01-30T07:28:12.704Z,16.10
2023-01-30T07:30:46.018Z,16.70
2023-01-30T07:34:08.330Z,17.10
2023-01-30T07:36:37.851Z,15.40
2023-01-30T07:39:20.371Z,17.60
2023-01-30T07:41:49.176Z,15.80
2023-01-30T07:44:21.325Z,16.20
2023-01-30T07:46:49.824Z,16.90
2023-01-30T07:49:18.273Z,17.60
2023-01-30T08:19:08.770Z,15.60
2023-01-30T08:54:23.192Z,17.00
2023-01-30T08:56:53.378Z,16.60
2023-01-30T08:59:24.567Z,16.40
2023-01-30T09:02:02.697Z,15.10
2023-01-30T09:04:31.135Z,16.10
2023-01-30T09:06:59.403Z,16.20
2023-01-30T09:09:29.326Z,16.90
2023-01-30T09:12:05.293Z,16.90
2023-01-30T09:14:40.811Z,15.00
2023-01-30T09:17:10.008Z,15.90
2023-01-30T09:19:39.332Z,14.90
2023-01-30T09:22:10.157Z,15.90
2023-01-30T09:24:38.411Z,15.00
2023-01-30T09:27:09.412Z,15.50
2023-01-30T09:29:41.662Z,15.00
2023-01-30T09:47:02.248Z,15.90
2023-01-30T09:50:06.411Z,15.50
2023-01-30T09:53:06.685Z,15.00
2023-01-30T09:55:41.733Z,15.20
2023-01-30T09:58:25.575Z,14.90
2023-01-30T10:01:02.258Z,16.20
2023-01-30T10:03:42.070Z,15.00
2023-01-30T10:06:14.768Z,14.60
2023-01-30T10:09:00.551Z,13.20
2023-01-30T10:12:04.851Z,15.50
2023-01-30T10:15:25.620Z,14.00
2023-01-30T10:18:02.701Z,15.10
2023-01-30T10:20:35.653Z,16.70
2023-01-30T10:23:06.202Z,16.40
2023-01-30T10:25:45.772Z,16.20
2023-01-30T10:28:35.470Z,17.60
2023-01-30T10:31:15.393Z,15.90
2023-01-30T10:33:53.537Z,15.20
2023-01-30T10:36:57.157Z,15.70
2023-01-30T10:39:54.818Z,17.60
2023-01-30T10:42:33.264Z,13.30
2023-01-30T10:45:24.450Z,18.00
2023-01-30T10:48:07.451Z,18.20
2023-01-30T10:50:54.046Z,17.30
2023-01-30T10:53:49.517Z,18.40
2023-01-30T10:56:35.146Z,17.30
2023-01-30T10:59:26.318Z,16.70
2023-01-30T11:02:35.400Z,17.50
2023-01-30T11:05:21.505Z,17.30
2023-01-30T11:07:50.206Z,17.10
2023-01-30T11:10:22.962Z,17.60
2023-01-30T11:12:58.823Z,19.90
2023-01-30T11:15:48.340Z,17.70
2023-01-30T11:19:06.662Z,18.00
2023-01-30T11:21:16.428Z,12.70
2023-01-30T12:08:42.917Z,16.00
2023-01-30T12:11:37.439Z,16.10
2023-01-30T12:14:24.277Z,16.80
2023-01-30T12:17:22.035Z,17.40
2023-01-30T12:21:13.231Z,16.10
2023-01-30T12:24:47.904Z,15.10
2023-01-30T12:28:14.219Z,15.90
2023-01-30T12:31:21.430Z,15.20
2023-01-30T14:13:18.714Z,12.20
2023-01-30T15:21:10.283Z,14.00
2023-01-30T15:24:19.147Z,14.20
2023-01-30T15:56:55.523Z,12.70
2023-01-30T15:59:35.735Z,11.60
2023-01-30T16:02:13.751Z,11.30
2023-01-30T16:04:44.744Z,10.50
2023-01-30T16:10:44.443Z,11.80
2023-01-30T16:13:32.937Z,12.10
2023-01-30T16:16:14.749Z,12.60
2023-01-30T16:18:53.459Z,9.40
2023-01-30T16:22:00.327Z,12.10
2023-01-30T16:24:49.601Z,11.80
2023-01-30T16:27:33.255Z,11.90
2023-01-30T16:30:06.770Z,12.80
2023-01-30T16:32:38.291Z,12.40
2023-01-30T16:35:15.540Z,13.40
2023-01-30T16:37:42.473Z,11.80
2023-01-30T16:40:24.892Z,12.00
2023-01-30T16:43:21.452Z,12.20
2023-01-30T16:45:52.997Z,12.40
2023-01-30T17:17:26.294Z,14.70
2023-01-30T17:20:42.641Z,13.00
2023-01-30T18:07:58.468Z,10.20
2023-01-30T18:10:35.349Z,9.90
2023-01-30T18:13:04.911Z,11.10
2023-01-30T18:15:32.092Z,10.20
2023-01-30T18:18:01.716Z,9.90
2023-01-30T18:20:28.902Z,9.30
2023-01-30T18:23:05.131Z,9.60
2023-01-30T18:26:15.403Z,9.90
2023-01-30T18:28:43.612Z,9.60
2023-01-30T18:31:12.092Z,9.20
2023-01-30T18:33:51.021Z,10.80
2023-01-30T18:36:32.119Z,10.70
2023-01-30T18:39:02.247Z,10.70
2023-01-30T18:41:29.502Z,11.90
2023-01-30T18:44:07.786Z,12.10
2023-01-30T18:46:35.170Z,11.20
2023-01-30T18:49:07.657Z,9.90
2023-01-30T18:51:36.975Z,10.30
2023-01-30T18:54:04.061Z,9.90
2023-01-30T18:56:33.225Z,11.10
2023-01-30T18:59:04.678Z,11.80
2023-01-30T19:01:36.188Z,11.50
2023-01-30T19:04:10.812Z,12.40
2023-01-30T19:06:42.265Z,14.90
2023-01-30T19:09:17.943Z,15.90
2023-01-30T19:12:06.808Z,16.10
2023-01-30T19:17:05.299Z,17.60
2023-01-30T19:19:50.118Z,18.00
2023-01-30T19:22:18.151Z,17.20
2023-01-30T19:24:47.600Z,16.80
2023-01-30T19:27:15.863Z,16.20
2023-01-30T19:29:45.297Z,16.80
2023-01-30T19:32:14.717Z,17.30
2023-01-30T19:34:45.008Z,15.40
2023-01-30T19:37:12.234Z,15.20
2023-01-30T19:39:39.149Z,14.40
2023-01-30T19:42:06.224Z,16.00
2023-01-30T19:44:33.378Z,13.70
2023-01-30T19:47:00.718Z,14.90
2023-01-30T19:49:27.681Z,14.70
2023-01-30T19:51:56.336Z,11.20
2023-01-30T19:54:23.709Z,12.10
2023-01-30T19:56:51.188Z,11.20
2023-01-30T19:59:18.511Z,10.30
2023-01-30T20:01:45.943Z,10.70
2023-01-30T20:04:16.083Z,10.30
2023-01-30T20:06:46.097Z,11.00
2023-01-30T20:09:12.990Z,10.30
2023-01-30T20:11:43.968Z,9.80
2023-01-30T20:14:11.357Z,9.20
2023-01-30T20:16:38.641Z,7.90
2023-01-30T20:19:13.325Z,8.40
2023-01-30T20:21:41.111Z,10.00
2023-01-30T20:24:11.532Z,9.40
2023-01-30T20:26:39.230Z,9.50
2023-01-30T20:29:08.130Z,8.90
2023-01-30T20:31:37.755Z,9.30
2023-01-30T20:34:07.430Z,9.30
2023-01-30T20:36:34.442Z,9.40
2023-01-30T20:39:07.592Z,9.50
2023-01-30T20:41:37.720Z,9.80
2023-01-30T20:44:07.056Z,9.00
2023-01-30T20:46:40.507Z,9.70
2023-01-30T20:49:20.839Z,9.70
2023-01-30T20:51:51.972Z,10.10
2023-01-30T20:54:54.095Z,10.10
2023-01-30T20:57:35.133Z,10.30
2023-01-30T21:00:05.267Z,9.60
2023-01-30T21:02:32.208Z,10.80
2023-01-30T21:04:59.149Z,11.70
2023-01-30T21:07:25.861Z,10.70
2023-01-30T21:09:55.564Z,11.50
2023-01-30T21:12:43.042Z,12.60
2023-01-30T21:15:12.938Z,12.30
2023-01-30T21:17:40.089Z,10.40
2023-01-30T21:20:07.573Z,9.40
2023-01-30T21:22:37.425Z,11.00
2023-01-30T21:25:41.451Z,11.30
2023-01-30T21:28:10.109Z,10.70
2023-01-30T22:06:28.360Z,7.30
2023-01-30T22:08:58.999Z,6.00
2023-01-30T22:11:33.255Z,7.10
2023-01-30T22:14:06.716Z,6.70
2023-01-30T22:16:35.495Z,7.30
2023-01-30T22:19:06.670Z,7.00
2023-01-30T22:21:36.663Z,6.50
2023-01-30T22:24:07.452Z,6.40
2023-01-30T22:26:37.722Z,6.80
2023-01-30T22:29:05.876Z,6.10
2023-01-30T22:31:36.504Z,6.70
2023-01-30T22:34:06.348Z,6.00
2023-01-30T22:36:34.785Z,6.50
2023-01-30T22:39:06.021Z,5.80
2023-01-30T22:41:35.076Z,6.00
2023-01-30T22:44:07.587Z,6.40
2023-01-30T22:46:38.760Z,6.00
2023-01-30T22:49:07.753Z,6.00
2023-01-30T22:51:40.828Z,6.10
2023-01-30T22:54:12.127Z,6.40
2023-01-30T22:56:43.253Z,6.10
2023-01-30T22:59:10.586Z,5.60
2023-01-30T23:01:42.587Z,5.60
2023-01-30T23:04:20.721Z,5.10
2023-01-30T23:06:51.682Z,6.10
2023-01-30T23:09:22.783Z,6.60
2023-01-30T23:12:18.613Z,6.80
2023-01-30T23:15:08.863Z,7.40
2023-01-30T23:18:01.879Z,7.40
2023-01-30T23:20:36.685Z,7.50
2023-01-30T23:23:06.365Z,7.20
2023-01-30T23:25:42.327Z,7.50
2023-01-30T23:28:29.711Z,6.60
2023-01-30T23:30:59.547Z,7.80
2023-01-30T23:33:27.087Z,8.00
2023-01-30T23:36:07.106Z,7.40
2023-01-30T23:38:39.340Z,7.90
2023-01-30T23:41:13.544Z,7.30
2023-01-30T23:43:48.176Z,7.30
2023-01-30T23:46:33.996Z,8.10
2023-01-30T23:49:09.421Z,7.90
2023-01-30T23:51:40.302Z,7.00
2023-01-30T23:54:16.176Z,7.50
2023-01-30T23:56:47.350Z,6.60
2023-01-30T23:59:28.246Z,6.30
